Time;durP1;ratioP1;P1;durP2;ratioP2;P2;SDS_P1;SDS_P2;PMS_P1;PMS_P2;Temp;Humidity;BMP_temperature;BMP_pressure;BME280_temperature;BME280_humidity;BME280_pressure;Samples;Min_cycle;Max_cycle;Signal;HPM_P1;HPM_P2
2021/10/07 00:02:07;;;;;;;9.27;2.20;;;;;;;5.67;42.30;102097.13;5002795;28;20097;-82
2021/10/07 00:04:34;;;;;;;4.73;2.07;;;;;;;5.65;43.09;102102.84;5010812;28;20353;-82
2021/10/07 00:07:01;;;;;;;5.00;2.27;;;;;;;5.63;42.80;102099.72;5001765;28;21010;-83
2021/10/07 00:09:28;;;;;;;5.97;1.90;;;;;;;5.62;42.55;102098.13;5004441;28;20093;-84
2021/10/07 00:11:55;;;;;;;5.77;2.30;;;;;;;5.63;42.38;102107.00;5009991;28;20081;-82
2021/10/07 00:39:49;;;;;;;4.17;2.17;;;;;;;5.43;42.87;102089.81;5014808;28;20133;-83
2021/10/07 00:42:16;;;;;;;6.70;2.40;;;;;;;5.36;43.34;102097.66;5005888;28;20050;-83
2021/10/07 00:44:46;;;;;;;6.53;2.47;;;;;;;5.37;42.68;102089.25;5025656;28;20050;-83
2021/10/07 00:47:15;;;;;;;10.67;2.73;;;;;;;5.37;43.13;102085.75;5011359;28;20447;-84
2021/10/07 00:49:42;;;;;;;7.87;2.70;;;;;;;5.34;43.56;102089.13;5009490;28;20046;-83
2021/10/07 00:52:11;;;;;;;8.70;2.20;;;;;;;5.27;43.21;102080.78;5016027;28;20501;-83
2021/10/07 00:54:38;;;;;;;6.20;2.13;;;;;;;5.28;43.71;102088.53;5003372;28;20042;-83
2021/10/07 00:57:06;;;;;;;8.57;2.70;;;;;;;5.29;43.23;102086.63;5015208;28;20085;-83
2021/10/07 00:59:33;;;;;;;3.53;2.00;;;;;;;5.25;43.88;102088.41;5015564;28;20129;-83
2021/10/07 01:02:05;;;;;;;6.70;2.20;;;;;;;5.24;43.64;102081.44;5017595;28;20054;-82
2021/10/07 01:04:32;;;;;;;14.40;2.67;;;;;;;5.21;43.60;102074.81;4996435;28;20049;-83
2021/10/07 01:06:59;;;;;;;7.37;2.60;;;;;;;5.23;43.04;102079.88;4997380;28;20089;-83
2021/10/07 01:09:28;;;;;;;9.30;2.50;;;;;;;5.21;43.20;102080.22;5016145;28;20545;-83
2021/10/07 01:11:57;;;;;;;4.53;2.57;;;;;;;5.24;43.24;102081.44;5009735;28;20085;-83
2021/10/07 01:14:42;;;;;;;7.13;2.93;;;;;;;5.25;43.47;102088.41;5009794;28;20137;-82
2021/10/07 01:17:11;;;;;;;7.10;2.53;;;;;;;5.21;43.79;102063.25;5015148;28;20089;-83
2021/10/07 01:19:40;;;;;;;5.40;2.63;;;;;;;5.21;43.49;102076.72;5013220;28;20145;-83
2021/10/07 01:22:07;;;;;;;6.57;4.10;;;;;;;5.22;43.43;102089.06;5015308;28;20133;-81
2021/10/07 01:24:34;;;;;;;3.73;2.67;;;;;;;5.13;43.67;102087.28;5019653;28;20076;-82
2021/10/07 01:27:02;;;;;;;7.27;2.67;;;;;;;5.12;43.87;102090.31;5020113;28;20085;-84
2021/10/07 01:29:29;;;;;;;9.27;2.70;;;;;;;5.09;43.64;102086.38;5014099;28;20138;-82
2021/10/07 01:31:56;;;;;;;6.67;2.80;;;;;;;5.12;43.88;102090.31;5018160;28;20073;-83
2021/10/07 01:34:25;;;;;;;11.00;3.00;;;;;;;5.07;43.68;102094.00;5014323;28;20533;-83
2021/10/07 01:36:52;;;;;;;5.23;2.23;;;;;;;5.08;44.13;102095.56;5014546;28;20956;-83
2021/10/07 01:39:20;;;;;;;4.43;2.80;;;;;;;5.06;44.18;102095.09;5014092;28;20060;-84
2021/10/07 01:41:48;;;;;;;5.83;2.80;;;;;;;5.06;43.57;102095.09;5015066;28;20142;-82
2021/10/07 01:44:17;;;;;;;6.17;3.03;;;;;;;5.10;43.76;102092.53;5029604;28;20053;-82
2021/10/07 01:46:44;;;;;;;7.80;2.80;;;;;;;5.06;44.36;102091.63;5013852;28;20137;-83
2021/10/07 01:49:11;;;;;;;6.40;2.57;;;;;;;5.04;43.82;102091.94;5011802;28;20050;-84
2021/10/07 01:51:38;;;;;;;5.43;2.27;;;;;;;5.06;43.24;102087.03;5011833;28;20518;-84
2021/10/07 01:54:06;;;;;;;5.90;3.00;;;;;;;5.05;44.20;102096.22;5012334;28;20109;-84
2021/10/07 01:56:32;;;;;;;5.63;3.27;;;;;;;4.99;44.27;102092.16;5010892;28;20073;-82
2021/10/07 01:59:00;;;;;;;11.07;4.03;;;;;;;4.93;43.95;102082.75;5013988;28;20092;-83
2021/10/07 02:01:26;;;;;;;4.33;2.60;;;;;;;4.93;44.02;102082.75;5008871;28;20049;-83
2021/10/07 02:03:54;;;;;;;9.43;2.63;;;;;;;4.93;43.64;102082.75;5013167;28;20058;-83
2021/10/07 02:06:21;;;;;;;9.27;2.60;;;;;;;4.87;44.51;102084.06;5033455;28;20050;-83
2021/10/07 02:08:48;;;;;;;7.73;3.37;;;;;;;4.88;44.29;102074.88;5013032;28;20045;-84
2021/10/07 02:11:14;;;;;;;6.57;3.00;;;;;;;4.89;44.36;102081.03;5003259;28;20573;-84
2021/10/07 02:13:41;;;;;;;6.40;3.30;;;;;;;4.87;44.92;102088.66;5000857;28;20062;-83
2021/10/07 02:16:08;;;;;;;11.13;3.60;;;;;;;4.87;44.48;102088.66;5003144;28;20050;-83
2021/10/07 02:18:35;;;;;;;8.10;3.43;;;;;;;4.88;44.36;102095.59;5008502;28;20469;-83
2021/10/07 02:21:02;;;;;;;8.73;4.40;;;;;;;4.89;44.73;102089.91;5013964;28;20054;-83
2021/10/07 02:23:29;;;;;;;8.23;3.27;;;;;;;4.85;44.63;102090.88;5023037;28;20461;-83
2021/10/07 02:25:56;;;;;;;8.97;3.80;;;;;;;4.81;44.75;102090.75;5005958;28;20092;-82
2021/10/07 02:28:22;;;;;;;8.13;3.43;;;;;;;4.83;45.20;102101.19;4999332;28;20080;-84
2021/10/07 02:30:49;;;;;;;7.23;3.70;;;;;;;4.80;44.67;102099.94;5013345;28;20136;-84
2021/10/07 02:33:17;;;;;;;11.63;4.00;;;;;;;4.76;45.23;102096.34;5029252;28;20137;-83
2021/10/07 02:35:44;;;;;;;9.03;4.10;;;;;;;4.74;45.41;102093.19;5000519;28;20125;-83
2021/10/07 02:38:11;;;;;;;8.93;3.67;;;;;;;4.77;45.37;102095.22;5012483;28;20096;-84
2021/10/07 02:40:38;;;;;;;7.27;3.40;;;;;;;4.74;45.45;102098.56;5026997;28;20049;-84
2021/10/07 02:43:06;;;;;;;5.90;3.50;;;;;;;4.73;45.15;102099.69;5013948;28;20136;-84
2021/10/07 02:45:32;;;;;;;8.30;3.57;;;;;;;4.72;45.21;102103.50;5026328;28;20092;-84
2021/10/07 02:47:59;;;;;;;8.50;3.13;;;;;;;4.71;44.93;102100.03;5013029;28;20417;-83
2021/10/07 02:50:27;;;;;;;14.47;3.23;;;;;;;4.69;44.97;102110.34;5007464;28;20074;-83
2021/10/07 02:52:55;;;;;;;11.47;3.73;;;;;;;4.68;46.18;102110.66;5018992;28;20081;-82
2021/10/07 02:55:22;;;;;;;5.20;3.10;;;;;;;4.67;46.58;102112.56;5012719;28;20084;-83
2021/10/07 02:57:49;;;;;;;11.23;3.57;;;;;;;4.65;45.54;102114.00;5000156;28;20129;-83
2021/10/07 03:00:17;;;;;;;7.27;3.00;;;;;;;4.64;46.20;102112.44;5006604;28;20077;-83
2021/10/07 03:02:44;;;;;;;7.97;3.00;;;;;;;4.60;45.77;102106.13;5019554;28;20050;-82
2021/10/07 03:05:13;;;;;;;7.20;4.43;;;;;;;4.57;45.65;102120.22;5005595;28;20049;-83
2021/10/07 03:07:40;;;;;;;6.27;3.03;;;;;;;4.55;45.72;102117.09;5011160;28;20081;-85
2021/10/07 03:10:08;;;;;;;8.07;4.00;;;;;;;4.51;45.73;102116.16;5012667;28;20141;-84
2021/10/07 03:12:35;;;;;;;7.73;3.50;;;;;;;4.48;46.88;102124.91;5012801;28;20174;-83
2021/10/07 03:15:03;;;;;;;8.77;3.97;;;;;;;4.48;46.44;102119.53;5018551;28;20084;-84
2021/10/07 03:17:30;;;;;;;11.27;4.50;;;;;;;4.42;46.22;102111.66;5011880;28;20065;-83
2021/10/07 03:19:57;;;;;;;6.17;4.00;;;;;;;4.41;46.25;102104.69;5013403;28;20081;-83
2021/10/07 03:22:24;;;;;;;10.93;4.37;;;;;;;4.37;46.76;102111.06;5008010;28;20534;-83
2021/10/07 03:24:51;;;;;;;7.23;3.80;;;;;;;4.32;47.26;102112.03;5004266;28;20092;-84
2021/10/07 03:27:18;;;;;;;8.97;3.80;;;;;;;4.33;46.88;102108.22;5010588;28;20099;-84
2021/10/07 03:29:44;;;;;;;8.60;3.80;;;;;;;4.30;47.77;102114.25;5012507;28;20089;-83
2021/10/07 03:32:11;;;;;;;8.80;4.17;;;;;;;4.32;47.18;102117.41;5010596;28;20514;-84
2021/10/07 03:34:38;;;;;;;10.27;4.40;;;;;;;4.31;47.19;102113.13;5003726;28;20129;-83
2021/10/07 03:37:05;;;;;;;7.87;4.17;;;;;;;4.28;47.06;102113.78;5023415;28;20049;-84
2021/10/07 03:39:32;;;;;;;11.90;3.90;;;;;;;4.25;47.40;102106.38;5022289;28;20512;-83
2021/10/07 03:41:59;;;;;;;11.27;4.17;;;;;;;4.24;47.55;102115.56;5005861;28;20157;-85
2021/10/07 03:44:26;;;;;;;15.50;5.23;;;;;;;4.23;47.36;102103.25;5024722;28;20103;-85
2021/10/07 03:46:52;;;;;;;9.00;4.10;;;;;;;4.23;47.17;102108.63;5002132;28;20077;-85
2021/10/07 03:49:19;;;;;;;10.10;3.97;;;;;;;4.21;47.57;102110.84;5025072;28;20046;-84
2021/10/07 03:51:46;;;;;;;7.43;3.73;;;;;;;4.24;47.37;102115.56;5000940;28;20080;-84
2021/10/07 03:54:13;;;;;;;6.13;3.83;;;;;;;4.19;47.94;102105.00;5010010;28;20486;-84
2021/10/07 03:56:40;;;;;;;8.03;4.17;;;;;;;4.23;47.58;102113.22;5002994;28;20142;-84
2021/10/07 03:59:07;;;;;;;10.57;3.73;;;;;;;4.26;47.34;102123.28;5004297;28;20088;-84
2021/10/07 04:01:33;;;;;;;6.50;4.10;;;;;;;4.25;47.65;102117.13;5007852;28;20133;-82
2021/10/07 04:04:01;;;;;;;9.03;5.10;;;;;;;4.25;48.58;102119.81;5003107;28;20046;-84
2021/10/07 04:06:27;;;;;;;10.30;5.30;;;;;;;4.29;47.57;102130.72;5008968;28;20120;-83
2021/10/07 04:08:54;;;;;;;7.97;4.40;;;;;;;4.25;47.92;102130.56;5004425;28;20133;-83
2021/10/07 04:11:21;;;;;;;12.63;4.37;;;;;;;4.30;48.04;102129.59;5011324;28;20518;-83
2021/10/07 04:13:48;;;;;;;9.53;3.90;;;;;;;4.27;48.10;102136.41;5008056;28;20093;-84
2021/10/07 04:16:15;;;;;;;12.27;4.53;;;;;;;4.32;47.49;102133.53;5005545;28;20162;-85
2021/10/07 04:18:44;;;;;;;14.63;5.00;;;;;;;4.35;47.51;102138.25;5003524;28;20053;-84
2021/10/07 04:21:11;;;;;;;10.30;5.03;;;;;;;4.37;47.95;102135.25;5009828;28;20494;-85
2021/10/07 04:23:39;;;;;;;12.53;5.17;;;;;;;4.36;47.70;102131.78;5009878;28;20077;-83
2021/10/07 04:26:06;;;;;;;13.47;5.13;;;;;;;4.42;47.62;102138.53;5010948;28;20497;-83
2021/10/07 04:28:34;;;;;;;16.70;5.23;;;;;;;4.47;46.92;102134.09;5002122;28;20148;-85
2021/10/07 04:31:02;;;;;;;12.70;5.77;;;;;;;4.50;48.04;102136.09;5001778;28;20052;-84
2021/10/07 04:33:28;;;;;;;16.97;5.57;;;;;;;4.56;47.75;102137.50;5009821;28;20073;-84
2021/10/07 04:35:55;;;;;;;20.33;8.07;;;;;;;4.63;47.64;102127.78;5017527;28;20064;-85
2021/10/07 04:38:22;;;;;;;24.10;7.60;;;;;;;4.71;47.74;102134.22;5005445;28;20089;-85
2021/10/07 04:40:49;;;;;;;26.30;9.17;;;;;;;4.70;47.85;102135.34;5007904;28;20629;-84
2021/10/07 04:43:18;;;;;;;27.33;8.87;;;;;;;4.90;47.49;102142.59;5042539;28;20466;-84
2021/10/07 04:45:45;;;;;;;22.80;10.23;;;;;;;5.03;47.67;102146.91;5013573;28;20085;-83
2021/10/07 04:48:12;;;;;;;35.73;10.63;;;;;;;5.13;47.26;102146.50;5013946;28;20637;-83
2021/10/07 04:50:40;;;;;;;32.87;12.33;;;;;;;5.26;47.24;102165.38;5011247;28;20145;-83
2021/10/07 04:53:06;;;;;;;38.73;12.50;;;;;;;5.25;47.17;102147.66;5026051;28;20133;-83
2021/10/07 04:55:33;;;;;;;45.37;13.03;;;;;;;5.36;46.57;102154.22;5002147;28;20104;-82
2021/10/07 04:58:00;;;;;;;42.13;13.47;;;;;;;5.36;46.25;102148.81;5003387;28;20093;-83
2021/10/07 05:00:28;;;;;;;47.07;12.83;;;;;;;5.42;46.23;102150.97;5003784;28;20053;-84
2021/10/07 05:02:57;;;;;;;44.43;12.77;;;;;;;5.49;46.01;102153.88;4994829;28;20077;-83
2021/10/07 05:05:24;;;;;;;32.93;11.53;;;;;;;5.64;45.57;102151.69;5022516;28;20062;-77
2021/10/07 05:07:51;;;;;;;30.63;9.17;;;;;;;5.85;45.45;102143.50;5001470;28;20054;-76
2021/10/07 05:10:18;;;;;;;31.87;9.40;;;;;;;5.97;45.63;102148.91;5007201;28;20081;-76
2021/10/07 05:12:44;;;;;;;22.53;8.40;;;;;;;6.12;45.19;102170.63;5013046;28;20136;-83
2021/10/07 05:15:11;;;;;;;20.20;8.80;;;;;;;6.33;44.79;102142.72;5014807;28;20133;-82
2021/10/07 05:17:39;;;;;;;18.63;7.50;;;;;;;6.46;44.20;102147.75;5005217;28;20723;-81
2021/10/07 05:20:07;;;;;;;22.07;7.33;;;;;;;6.63;43.91;102152.09;5016476;28;20050;-84
2021/10/07 05:22:34;;;;;;;14.93;6.00;;;;;;;6.78;43.85;102142.50;5015015;28;20058;-81
2021/10/07 05:25:02;;;;;;;19.87;6.00;;;;;;;6.92;43.27;102137.50;5034733;28;20168;-82
2021/10/07 05:27:29;;;;;;;13.57;5.60;;;;;;;7.06;43.00;102153.31;5025331;28;20085;-83
2021/10/07 05:29:56;;;;;;;19.97;6.00;;;;;;;7.29;42.74;102138.13;5001770;28;20154;-83
2021/10/07 05:32:22;;;;;;;15.63;5.93;;;;;;;7.50;41.26;102137.88;5008095;28;20517;-83
2021/10/07 05:34:49;;;;;;;16.93;6.70;;;;;;;7.79;41.21;102131.25;5026392;28;20054;-82
2021/10/07 05:37:18;;;;;;;15.03;6.27;;;;;;;8.08;40.52;102138.09;5006803;28;20050;-81
2021/10/07 05:39:45;;;;;;;17.60;6.23;;;;;;;8.26;39.08;102128.47;5013189;28;20050;-81
2021/10/07 05:42:12;;;;;;;15.43;6.77;;;;;;;8.47;38.34;102137.09;5005555;28;20050;-80
2021/10/07 05:44:40;;;;;;;12.83;5.60;;;;;;;8.61;38.01;102143.94;5019621;28;20065;-78
2021/10/07 05:47:10;;;;;;;9.17;4.90;;;;;;;8.76;37.48;102134.94;5021584;28;20056;-82
2021/10/07 05:49:37;;;;;;;20.13;5.63;;;;;;;8.89;37.55;102123.63;5014648;28;20513;-83
2021/10/07 05:52:05;;;;;;;12.63;5.73;;;;;;;9.06;37.38;102133.22;5013682;28;20228;-78
2021/10/07 05:54:32;;;;;;;15.77;5.30;;;;;;;9.24;36.34;102122.72;5012377;28;20435;-83
2021/10/07 05:56:59;;;;;;;13.17;4.90;;;;;;;9.53;35.93;102124.00;5006754;28;20042;-81
2021/10/07 05:59:26;;;;;;;10.40;4.70;;;;;;;9.58;35.69;102121.78;5018537;28;20054;-85
2021/10/07 06:01:54;;;;;;;15.13;4.93;;;;;;;9.89;35.68;102126.16;5012346;28;20145;-84
2021/10/07 06:04:21;;;;;;;14.80;4.43;;;;;;;10.14;34.89;102131.16;5011639;28;20112;-81
2021/10/07 06:06:48;;;;;;;18.97;5.43;;;;;;;10.21;35.06;102126.63;5013306;28;20073;-81
2021/10/07 06:09:15;;;;;;;15.00;5.23;;;;;;;10.62;34.03;102128.72;5015144;28;20049;-82
2021/10/07 06:11:42;;;;;;;11.37;4.43;;;;;;;10.88;33.71;102121.25;5013191;28;20088;-83
2021/10/07 06:14:09;;;;;;;13.30;4.57;;;;;;;10.84;32.83;102125.13;5014129;28;20054;-84
2021/10/07 06:16:39;;;;;;;9.07;4.07;;;;;;;11.00;33.42;102116.75;5013011;28;20550;-79
2021/10/07 06:19:09;;;;;;;11.93;4.40;;;;;;;10.92;32.18;102107.72;5012599;28;20460;-81
2021/10/07 06:21:36;;;;;;;7.87;4.10;;;;;;;10.94;32.96;102129.88;5005914;28;20096;-79
2021/10/07 06:24:04;;;;;;;11.93;4.47;;;;;;;11.04;32.20;102118.34;5006788;28;20570;-80
2021/10/07 06:26:40;;;;;;;10.93;4.30;;;;;;;11.09;31.76;102115.28;5001155;28;20096;-82
2021/10/07 06:29:07;;;;;;;15.73;4.53;;;;;;;11.33;31.75;102118.63;5008652;28;20056;-81
2021/10/07 06:31:35;;;;;;;11.43;4.30;;;;;;;11.24;31.13;102127.09;5011552;28;20128;-80
2021/10/07 06:34:02;;;;;;;11.90;5.00;;;;;;;11.16;30.84;102092.81;5009890;28;20088;-80
2021/10/07 06:36:29;;;;;;;13.53;4.90;;;;;;;11.17;31.40;102111.47;5008688;28;20130;-81
2021/10/07 06:38:57;;;;;;;10.67;4.60;;;;;;;11.28;31.17;102106.94;5042668;28;20077;-81
2021/10/07 06:41:23;;;;;;;11.07;4.57;;;;;;;11.20;30.60;102112.66;5026718;28;20058;-80
2021/10/07 06:43:50;;;;;;;13.93;4.73;;;;;;;11.49;30.91;102108.28;5024964;28;20117;-80
2021/10/07 06:46:18;;;;;;;10.93;5.00;;;;;;;11.57;30.87;102112.63;5028899;28;20153;-81
2021/10/07 06:48:44;;;;;;;12.07;5.03;;;;;;;11.54;30.55;102113.38;5002013;28;20045;-81
2021/10/07 06:51:11;;;;;;;11.77;4.67;;;;;;;11.55;30.46;102114.94;5012492;28;20085;-83
2021/10/07 06:53:38;;;;;;;9.37;4.47;;;;;;;11.49;30.13;102105.56;5011263;28;20058;-80
2021/10/07 06:56:06;;;;;;;19.63;5.90;;;;;;;11.66;30.38;102125.91;5027135;28;20061;-81
2021/10/07 06:58:33;;;;;;;11.47;5.47;;;;;;;11.71;30.18;102112.72;5008900;28;20086;-81
2021/10/07 07:01:00;;;;;;;11.07;4.80;;;;;;;11.84;29.65;102111.28;5009576;28;20130;-82
2021/10/07 07:03:27;;;;;;;18.57;4.73;;;;;;;12.09;29.06;102099.78;5013283;28;20390;-80
2021/10/07 07:05:54;;;;;;;10.13;5.00;;;;;;;12.45;29.28;102101.53;5019078;28;20074;-81
2021/10/07 07:08:21;;;;;;;14.40;5.73;;;;;;;12.50;28.48;102114.81;5003146;28;20051;-81
2021/10/07 07:10:48;;;;;;;12.17;4.93;;;;;;;12.49;28.05;102099.63;5012115;28;20054;-83
2021/10/07 07:13:16;;;;;;;12.50;4.57;;;;;;;12.43;27.41;102097.63;5004596;28;20077;-82
2021/10/07 07:15:43;;;;;;;16.53;5.07;;;;;;;12.61;27.60;102110.16;5003058;28;20058;-81
2021/10/07 07:18:10;;;;;;;11.67;5.17;;;;;;;12.68;26.34;102098.53;5010410;28;20069;-80
2021/10/07 07:20:37;;;;;;;11.77;6.37;;;;;;;12.77;27.00;102122.66;5010762;28;20085;-83
2021/10/07 07:23:11;;;;;;;18.27;5.67;;;;;;;12.52;26.13;102107.00;5009849;28;20093;-82
2021/10/07 07:25:38;;;;;;;17.55;6.70;;;;;;;12.40;26.62;102112.78;4999794;28;20503;-82
2021/10/07 07:28:05;;;;;;;12.00;5.27;;;;;;;12.50;26.28;102106.63;5008302;28;20100;-80
2021/10/07 07:30:32;;;;;;;11.13;5.17;;;;;;;12.43;26.36;102122.94;5006137;28;20123;-81
2021/10/07 07:32:59;;;;;;;15.40;5.17;;;;;;;12.31;26.45;102096.00;5011376;28;20084;-82
2021/10/07 07:35:29;;;;;;;15.20;5.53;;;;;;;12.19;26.42;102120.84;5014195;28;20156;-82
2021/10/07 07:38:03;;;;;;;10.33;5.07;;;;;;;12.16;26.99;102091.66;5022247;28;20050;-82
2021/10/07 07:40:32;;;;;;;13.97;5.60;;;;;;;12.45;27.21;102106.22;5003598;28;20058;-82
2021/10/07 07:42:59;;;;;;;11.10;5.23;;;;;;;12.74;26.83;102101.66;5004429;28;20077;-82
2021/10/07 07:45:26;;;;;;;11.60;5.87;;;;;;;12.79;26.10;102104.00;5008921;28;20058;-80
2021/10/07 07:47:56;;;;;;;10.57;4.90;;;;;;;13.13;26.45;102091.63;5010447;28;20712;-81
2021/10/07 07:50:25;;;;;;;14.70;6.03;;;;;;;13.34;26.02;102106.47;5009781;28;20065;-81
2021/10/07 07:52:53;;;;;;;11.67;5.07;;;;;;;13.49;25.64;102083.47;5011460;28;20045;-81
2021/10/07 07:55:21;;;;;;;13.80;5.50;;;;;;;13.58;25.90;102097.50;5010017;28;20064;-80
2021/10/07 07:57:48;;;;;;;21.03;6.17;;;;;;;13.71;25.84;102093.19;5005244;28;20073;-81
2021/10/07 08:00:15;;;;;;;12.27;5.27;;;;;;;13.92;25.56;102097.88;5000198;28;20089;-80
2021/10/07 08:02:42;;;;;;;19.43;6.07;;;;;;;14.05;25.43;102079.13;5016171;28;20113;-82
2021/10/07 08:05:09;;;;;;;10.10;5.13;;;;;;;14.18;25.56;102077.50;5003668;28;20065;-81
2021/10/07 08:07:36;;;;;;;16.50;6.57;;;;;;;14.32;25.46;102091.91;5010563;28;20485;-80
2021/10/07 08:10:03;;;;;;;14.73;6.00;;;;;;;14.19;24.90;102079.84;5008249;28;20065;-81
2021/10/07 08:12:33;;;;;;;14.97;5.83;;;;;;;14.27;25.12;102094.25;5011004;28;20133;-81
2021/10/07 08:15:03;;;;;;;12.50;5.67;;;;;;;14.64;24.96;102091.78;5006640;28;20050;-80
2021/10/07 08:17:30;;;;;;;13.80;6.03;;;;;;;14.92;24.19;102103.75;4998607;28;20084;-82
2021/10/07 08:19:57;;;;;;;18.67;5.87;;;;;;;14.93;24.00;102083.44;5010224;28;20452;-80
2021/10/07 08:22:25;;;;;;;13.37;6.37;;;;;;;15.15;23.62;102082.13;4999937;28;20080;-81
2021/10/07 08:24:52;;;;;;;16.97;5.70;;;;;;;15.40;23.65;102089.34;5010518;28;20058;-83
2021/10/07 08:27:19;;;;;;;13.83;6.13;;;;;;;15.26;23.24;102074.63;5011005;28;20128;-82
2021/10/07 08:29:46;;;;;;;14.83;5.43;;;;;;;15.28;22.94;102077.72;5041905;28;20053;-84
2021/10/07 08:32:13;;;;;;;14.37;6.73;;;;;;;15.24;22.61;102070.72;5011436;28;20096;-82
2021/10/07 08:34:40;;;;;;;18.90;5.73;;;;;;;15.21;23.06;102087.94;5007042;28;20085;-81
2021/10/07 08:37:07;;;;;;;17.10;6.00;;;;;;;15.25;22.97;102073.06;5009885;28;20533;-82
2021/10/07 08:39:34;;;;;;;16.63;5.97;;;;;;;15.57;22.91;102083.78;5018565;28;20066;-81
2021/10/07 08:42:01;;;;;;;14.57;5.60;;;;;;;15.73;22.82;102064.06;5006779;28;20730;-82
2021/10/07 08:44:28;;;;;;;14.87;4.20;;;;;;;15.66;21.73;102075.09;5011288;28;20049;-81
2021/10/07 08:46:56;;;;;;;8.85;4.40;;;;;;;15.85;20.73;102065.50;5014001;28;20053;-82
2021/10/07 08:49:25;;;;;;;16.17;4.93;;;;;;;15.78;20.89;102062.88;5015235;28;20080;-84
2021/10/07 08:51:53;;;;;;;17.63;4.97;;;;;;;15.99;21.55;102077.09;5015209;28;20046;-81
2021/10/07 08:54:21;;;;;;;15.47;4.60;;;;;;;15.92;21.56;102070.91;5015628;28;20492;-82
2021/10/07 08:56:48;;;;;;;14.17;5.10;;;;;;;15.62;21.07;102061.44;5017808;28;20077;-82
2021/10/07 08:59:16;;;;;;;11.73;5.20;;;;;;;15.69;21.33;102053.16;5001904;28;20198;-84
2021/10/07 09:01:44;;;;;;;12.32;5.00;;;;;;;15.58;20.94;102059.94;5009769;28;20557;-83
2021/10/07 09:04:33;;;;;;;15.70;5.50;;;;;;;15.56;21.26;102065.03;5017564;28;20132;-80
2021/10/07 09:07:11;;;;;;;25.48;6.47;;;;;;;15.77;20.91;102062.09;5016904;28;20050;-82
2021/10/07 09:09:40;;;;;;;11.00;5.37;;;;;;;15.95;21.22;102075.59;5005819;28;20129;-81
2021/10/07 09:12:12;;;;;;;11.63;5.00;;;;;;;15.93;20.13;102061.53;5012649;28;20111;-82
2021/10/07 09:14:44;;;;;;;14.57;3.97;;;;;;;15.90;19.52;102029.47;5010283;28;20502;-83
2021/10/07 09:17:14;;;;;;;11.93;3.85;;;;;;;15.89;19.56;102042.38;5008382;28;20137;-82
2021/10/07 09:19:43;;;;;;;6.88;3.75;;;;;;;16.11;19.47;102061.31;5011025;28;20092;-81
2021/10/07 09:22:20;;;;;;;11.50;4.22;;;;;;;16.32;19.24;102055.56;5002886;28;20137;-82
2021/10/07 09:24:55;;;;;;;12.80;3.97;;;;;;;16.31;18.97;102051.28;5013604;28;20141;-81
2021/10/07 09:27:32;;;;;;;15.27;3.88;;;;;;;16.51;18.63;102052.22;5026813;28;20486;-81
2021/10/07 09:30:08;;;;;;;32.22;8.52;;;;;;;16.65;18.67;102046.56;5007299;28;20057;-81
2021/10/07 09:32:50;;;;;;;13.27;4.30;;;;;;;16.51;18.59;102041.25;5007187;28;20081;-82
2021/10/07 09:35:20;;;;;;;5.65;3.22;;;;;;;16.03;18.75;102046.94;5009561;28;20165;-81
2021/10/07 09:37:56;;;;;;;15.63;3.70;;;;;;;16.14;18.78;102044.06;5028799;28;20070;-80
2021/10/07 09:40:26;;;;;;;12.50;3.67;;;;;;;16.29;19.19;102056.44;5013792;28;20054;-82
2021/10/07 09:42:54;;;;;;;8.88;3.95;;;;;;;16.39;18.81;102050.00;5012631;28;20485;-83
2021/10/07 09:45:29;;;;;;;10.75;4.20;;;;;;;16.57;18.71;102042.31;5001534;28;20406;-84
2021/10/07 09:48:04;;;;;;;8.10;3.65;;;;;;;16.63;18.54;102043.47;5010537;28;20149;-83
2021/10/07 09:50:39;;;;;;;10.38;3.42;;;;;;;16.52;19.04;102042.03;5020583;28;20120;-83
2021/10/07 09:53:10;;;;;;;10.38;4.20;;;;;;;16.26;18.97;102040.81;5009883;28;20084;-82
2021/10/07 09:55:45;;;;;;;7.40;3.10;;;;;;;16.33;19.03;102059.88;5014473;28;20548;-84
2021/10/07 09:58:21;;;;;;;11.45;3.13;;;;;;;16.67;19.12;102040.66;5008263;28;20128;-82
2021/10/07 10:00:53;;;;;;;9.13;3.63;;;;;;;16.93;19.04;102039.13;5012051;28;20077;-82
2021/10/07 10:03:21;;;;;;;10.05;4.20;;;;;;;17.11;19.32;102039.59;5006891;28;20502;-83
2021/10/07 10:05:50;;;;;;;15.88;4.00;;;;;;;17.50;19.39;102038.16;5010973;28;20053;-83
2021/10/07 10:08:19;;;;;;;8.35;3.70;;;;;;;17.80;19.16;102029.03;5013328;28;20077;-83
2021/10/07 10:10:48;;;;;;;10.38;4.35;;;;;;;17.64;18.41;102019.50;5021686;28;20081;-83
2021/10/07 10:13:16;;;;;;;9.95;3.80;;;;;;;17.83;18.64;102028.19;5005121;28;20081;-83
2021/10/07 10:15:44;;;;;;;10.02;4.30;;;;;;;18.03;18.48;102021.50;5011719;28;20133;-82
2021/10/07 10:18:16;;;;;;;12.68;3.80;;;;;;;18.01;18.45;102015.63;5007374;28;20085;-82
2021/10/07 10:20:51;;;;;;;11.60;3.75;;;;;;;17.85;18.51;102017.56;5005821;28;20084;-82
2021/10/07 10:23:25;;;;;;;11.73;3.92;;;;;;;17.74;18.36;102012.25;5028059;28;20054;-83
2021/10/07 10:25:52;;;;;;;8.27;3.17;;;;;;;17.51;18.78;102015.00;5018845;28;20145;-82
2021/10/07 10:28:29;;;;;;;8.35;3.50;;;;;;;17.18;18.90;102023.03;5017775;28;20081;-83
2021/10/07 10:31:08;;;;;;;10.13;3.40;;;;;;;16.97;18.53;102006.91;5002893;28;20059;-83
2021/10/07 10:33:37;;;;;;;9.60;2.92;;;;;;;16.78;18.65;102021.31;5008155;28;20080;-84
2021/10/07 10:36:23;;;;;;;8.70;3.05;;;;;;;16.74;19.14;102020.59;5024228;28;20438;-81
2021/10/07 10:39:11;;;;;;;10.98;3.53;;;;;;;17.03;19.30;102011.50;5007375;28;20058;-82
2021/10/07 10:42:00;;;;;;;14.73;3.42;;;;;;;16.99;18.77;102004.53;5009742;28;20081;-82
2021/10/07 10:44:30;;;;;;;7.13;3.03;;;;;;;16.90;19.08;102018.78;5002829;28;20133;-83
2021/10/07 10:47:13;;;;;;;9.73;3.65;;;;;;;17.16;19.03;102017.19;5014737;28;20620;-81
2021/10/07 10:49:40;;;;;;;11.38;3.40;;;;;;;17.38;19.10;102004.66;5026572;28;20112;-81
2021/10/07 10:52:15;;;;;;;12.82;3.58;;;;;;;17.51;18.87;102007.53;5011561;28;20112;-81
2021/10/07 10:54:44;;;;;;;15.77;4.20;;;;;;;17.78;19.21;102004.72;5008991;28;20085;-81
2021/10/07 10:57:36;;;;;;;9.82;3.55;;;;;;;17.89;18.93;102005.31;5027818;28;20483;-83
2021/10/07 11:00:25;;;;;;;12.23;3.25;;;;;;;17.78;18.07;102004.72;5012314;28;20045;-83
2021/10/07 11:02:54;;;;;;;10.68;3.33;;;;;;;17.69;18.47;102007.25;5007703;28;20093;-84
2021/10/07 11:05:29;;;;;;;8.25;3.03;;;;;;;17.39;18.58;101995.22;5013187;28;20060;-82
2021/10/07 11:08:14;;;;;;;6.25;3.20;;;;;;;17.04;18.30;102007.56;5011063;28;20088;-81
2021/10/07 11:11:03;;;;;;;5.57;2.88;;;;;;;16.88;18.74;102003.91;5019361;28;20058;-82
2021/10/07 11:13:33;;;;;;;11.15;2.83;;;;;;;16.85;18.25;102004.75;5011563;28;20128;-81
2021/10/07 11:16:06;;;;;;;5.78;2.63;;;;;;;16.90;18.61;101996.06;4994534;28;20100;-83
2021/10/07 11:18:37;;;;;;;4.45;2.53;;;;;;;17.01;18.88;102008.41;5000998;28;20056;-82
2021/10/07 11:21:15;;;;;;;7.82;3.17;;;;;;;17.19;18.51;102002.63;5012232;28;20058;-80
2021/10/07 11:23:49;;;;;;;6.68;3.25;;;;;;;17.67;18.50;101998.66;5010662;28;20073;-81
2021/10/07 11:26:18;;;;;;;9.98;3.20;;;;;;;17.97;18.21;102001.19;5005820;28;20057;-83
2021/10/07 11:28:47;;;;;;;7.60;2.28;;;;;;;18.21;18.22;101999.13;5009711;28;20435;-82
2021/10/07 11:31:29;;;;;;;13.60;2.95;;;;;;;18.43;18.00;101993.94;5047055;28;20148;-81
2021/10/07 11:33:58;;;;;;;11.77;3.15;;;;;;;18.48;17.57;101992.66;5008711;28;20142;-82
2021/10/07 11:36:27;;;;;;;9.77;3.05;;;;;;;18.72;18.07;101988.59;5011807;28;20104;-83
2021/10/07 11:38:55;;;;;;;17.23;3.08;;;;;;;18.55;17.25;101996.03;5006725;28;20497;-82
2021/10/07 11:41:30;;;;;;;7.00;2.70;;;;;;;18.07;17.66;101993.94;5025846;28;20521;-82
2021/10/07 11:43:58;;;;;;;8.10;2.70;;;;;;;17.73;17.89;101992.25;5040671;28;20144;-81
2021/10/07 11:46:25;;;;;;;7.30;3.10;;;;;;;17.48;18.87;102002.13;5012956;28;20058;-81
2021/10/07 11:48:56;;;;;;;8.60;2.83;;;;;;;17.87;18.86;101995.94;5012911;28;20061;-82
2021/10/07 11:51:28;;;;;;;9.27;2.75;;;;;;;17.88;18.33;101998.25;5010531;28;20050;-84
2021/10/07 11:54:02;;;;;;;11.57;2.83;;;;;;;18.09;18.53;102001.75;4999293;28;20097;-81
2021/10/07 11:56:32;;;;;;;6.15;2.55;;;;;;;17.83;18.98;102017.97;5021690;28;20478;-81
2021/10/07 11:59:02;;;;;;;6.82;2.75;;;;;;;17.42;19.19;102026.56;5005028;28;20073;-83